Time;durP1;ratioP1;P1;durP2;ratioP2;P2;SDS_P1;SDS_P2;PMS_P1;PMS_P2;Temp;Humidity;BMP_temperature;BMP_pressure;BME280_temperature;BME280_humidity;BME280_pressure;Samples;Min_cycle;Max_cycle;Signal;HPM_P1;HPM_P2
2022/04/26 03:37:29;;;;;;;21.15;9.23;;;8.50;99.90;;;;;;5098439;28;20079;-72
2022/04/26 03:39:56;;;;;;;18.45;8.65;;;8.50;99.90;;;;;;5098388;28;20036;-72
2022/04/26 03:42:21;;;;;;;23.58;9.30;;;8.50;99.90;;;;;;5098387;28;20047;-72
2022/04/26 03:44:47;;;;;;;17.98;8.93;;;8.50;99.90;;;;;;5097907;28;20411;-72
2022/04/26 03:47:12;;;;;;;16.40;8.75;;;8.50;99.90;;;;;;5098024;28;20042;-72
2022/04/26 03:49:38;;;;;;;24.63;8.90;;;8.50;99.90;;;;;;5097904;28;20426;-72
2022/04/26 03:52:04;;;;;;;16.90;9.20;;;8.50;99.90;;;;;;5097905;28;20048;-72
2022/04/26 03:54:30;;;;;;;15.85;8.57;;;8.50;99.90;;;;;;5081221;28;20488;-72
2022/04/26 03:56:55;;;;;;;20.33;8.52;;;8.50;99.90;;;;;;5098043;28;20050;-72
2022/04/26 03:59:21;;;;;;;15.55;8.68;;;8.50;99.90;;;;;;5081181;28;20487;-72
2022/04/26 04:01:47;;;;;;;16.25;8.82;;;8.50;99.90;;;;;;5097748;28;20571;-72
2022/04/26 04:04:13;;;;;;;18.15;8.85;;;8.40;99.90;;;;;;5097544;28;20039;-72
2022/04/26 04:06:39;;;;;;;19.13;9.35;;;8.40;99.90;;;;;;5097631;28;20043;-72
2022/04/26 04:09:05;;;;;;;18.48;8.18;;;8.40;99.90;;;;;;5097527;28;20116;-72
2022/04/26 04:11:30;;;;;;;22.40;9.07;;;8.30;99.90;;;;;;5097428;28;20044;-72
2022/04/26 04:13:56;;;;;;;18.50;9.15;;;8.40;99.90;;;;;;5080613;28;20031;-72
2022/04/26 04:16:21;;;;;;;21.85;8.38;;;8.40;99.90;;;;;;5097453;28;20039;-72
2022/04/26 04:21:31;;;;;;;20.50;8.80;;;8.30;99.90;;;;;;5097320;28;20043;-72
2022/04/26 04:23:57;;;;;;;18.05;8.75;;;8.30;99.90;;;;;;5097390;28;20404;-72
2022/04/26 04:26:23;;;;;;;16.55;8.18;;;8.30;99.90;;;;;;5097216;28;20483;-72
2022/04/26 04:28:48;;;;;;;11.98;7.93;;;8.30;99.90;;;;;;5097191;28;20065;-72
2022/04/26 04:31:14;;;;;;;20.25;8.65;;;8.30;99.90;;;;;;5097187;28;20108;-72
2022/04/26 04:33:39;;;;;;;19.45;7.65;;;8.40;99.90;;;;;;5097079;28;20044;-72
2022/04/26 04:36:06;;;;;;;20.52;8.13;;;8.30;99.90;;;;;;5096586;28;20039;-72
2022/04/26 04:38:32;;;;;;;22.73;8.85;;;8.30;99.90;;;;;;5115233;28;20061;-72
2022/04/26 04:41:00;;;;;;;19.00;8.18;;;8.40;99.90;;;;;;5097200;28;20055;-72
2022/04/26 04:43:26;;;;;;;14.88;8.13;;;8.40;99.90;;;;;;5097164;28;20047;-72
2022/04/26 04:45:51;;;;;;;20.35;7.97;;;8.40;99.90;;;;;;5079931;28;20455;-72
2022/04/26 04:48:17;;;;;;;20.63;8.05;;;8.40;99.90;;;;;;5096805;28;20085;-72
2022/04/26 04:50:43;;;;;;;21.13;7.82;;;8.40;99.90;;;;;;5096771;28;20035;-72
2022/04/26 04:53:09;;;;;;;14.50;6.55;;;8.40;99.90;;;;;;5127525;22;20032;-69
2022/04/26 04:55:34;;;;;;;18.55;7.55;;;8.40;99.90;;;;;;5117244;27;20058;-69
2022/04/26 04:58:00;;;;;;;20.58;7.10;;;8.40;99.90;;;;;;5134179;27;20047;-69
2022/04/26 05:00:26;;;;;;;18.23;6.55;;;8.40;99.90;;;;;;5134470;27;20113;-69
2022/04/26 05:02:52;;;;;;;12.50;5.85;;;8.40;99.90;;;;;;5134078;27;20402;-69
2022/04/26 05:05:18;;;;;;;15.18;5.78;;;8.40;99.90;;;;;;5134398;27;20050;-69
2022/04/26 05:07:43;;;;;;;13.65;6.38;;;8.50;99.90;;;;;;5133956;27;20406;-69
2022/04/26 05:10:09;;;;;;;20.15;6.32;;;8.50;99.90;;;;;;5133947;27;20103;-69
2022/04/26 05:12:35;;;;;;;16.95;6.18;;;8.50;99.90;;;;;;5116625;27;20043;-69
2022/04/26 05:15:00;;;;;;;15.23;6.35;;;8.50;99.90;;;;;;5133993;27;20104;-69
2022/04/26 05:17:29;;;;;;;15.50;5.60;;;8.50;99.90;;;;;;5134110;27;20039;-69
2022/04/26 05:19:55;;;;;;;15.50;5.25;;;8.60;99.90;;;;;;5116635;27;20122;-69
2022/04/26 05:22:21;;;;;;;20.33;5.93;;;8.60;99.90;;;;;;5133719;27;20498;-69
2022/04/26 05:24:53;;;;;;;14.65;5.32;;;8.60;99.90;;;;;;5116522;27;20031;-69
2022/04/26 05:27:31;;;;;;;13.13;5.35;;;8.60;99.90;;;;;;5133734;27;20121;-69
2022/04/26 05:29:57;;;;;;;18.23;5.72;;;8.70;99.90;;;;;;5116527;27;20035;-69
2022/04/26 05:32:27;;;;;;;16.30;5.00;;;8.70;99.90;;;;;;5133530;27;20482;-69
2022/04/26 05:35:03;;;;;;;17.45;5.90;;;8.70;99.90;;;;;;5133531;27;20039;-69
2022/04/26 05:37:31;;;;;;;15.38;5.30;;;8.70;99.90;;;;;;5133814;27;20132;-69
2022/04/26 05:40:02;;;;;;;11.75;4.75;;;8.70;99.90;;;;;;5133417;27;20031;-69
2022/04/26 05:42:29;;;;;;;13.98;5.00;;;8.70;99.90;;;;;;5116215;27;20066;-69
2022/04/26 05:44:55;;;;;;;13.50;4.70;;;8.70;99.90;;;;;;5133373;27;20517;-69
2022/04/26 05:47:21;;;;;;;17.10;4.47;;;8.70;99.90;;;;;;5133275;27;20047;-69
2022/04/26 05:49:47;;;;;;;14.80;4.40;;;8.80;99.90;;;;;;5133185;27;20122;-69
2022/04/26 05:52:13;;;;;;;13.15;3.78;;;8.80;99.90;;;;;;5133246;27;20126;-69
2022/04/26 05:54:38;;;;;;;12.32;4.32;;;8.80;99.90;;;;;;5133054;27;20118;-69
2022/04/26 05:57:04;;;;;;;15.57;4.57;;;8.90;99.90;;;;;;5116047;27;20035;-69
2022/04/26 05:59:29;;;;;;;13.45;4.30;;;8.90;99.90;;;;;;5115994;27;20045;-69
2022/04/26 06:01:55;;;;;;;13.27;4.07;;;8.90;99.90;;;;;;5133070;27;20043;-69
2022/04/26 06:04:20;;;;;;;18.58;4.43;;;8.90;99.90;;;;;;5132966;27;20125;-69
2022/04/26 06:06:46;;;;;;;13.73;4.07;;;8.90;99.90;;;;;;5133017;27;20046;-69
2022/04/26 06:09:15;;;;;;;15.63;3.83;;;8.90;99.90;;;;;;5132904;27;20039;-69
2022/04/26 06:11:40;;;;;;;11.98;4.05;;;9.00;99.90;;;;;;5115823;27;20163;-71
2022/04/26 06:14:06;;;;;;;12.35;3.88;;;8.90;99.90;;;;;;5132858;27;20077;-70
2022/04/26 06:16:32;;;;;;;15.48;4.30;;;8.90;99.90;;;;;;5132937;27;20398;-70
2022/04/26 06:18:58;;;;;;;12.02;3.92;;;8.90;99.90;;;;;;5132861;28;20468;-70
2022/04/26 06:21:23;;;;;;;12.95;4.30;;;8.90;99.90;;;;;;5132892;28;20043;-70
2022/04/26 06:23:49;;;;;;;10.43;3.90;;;9.00;99.90;;;;;;5133086;28;20039;-70
2022/04/26 06:26:15;;;;;;;11.65;4.05;;;9.10;99.90;;;;;;5132836;28;20448;-69
2022/04/26 06:28:40;;;;;;;9.48;3.90;;;9.20;99.90;;;;;;5132755;28;20046;-69
2022/04/26 06:31:06;;;;;;;12.93;4.30;;;9.20;99.90;;;;;;5132791;28;20402;-69
2022/04/26 06:33:33;;;;;;;11.35;3.78;;;9.30;99.90;;;;;;5132703;28;20038;-69
2022/04/26 06:35:58;;;;;;;12.65;3.97;;;9.30;99.90;;;;;;5132742;28;20125;-69
2022/04/26 06:38:25;;;;;;;11.73;3.83;;;9.40;99.90;;;;;;5132677;28;20181;-69
2022/04/26 06:40:52;;;;;;;11.70;3.92;;;9.40;99.90;;;;;;5115847;28;20039;-69
2022/04/26 06:43:18;;;;;;;12.27;4.43;;;9.50;99.90;;;;;;5133308;28;20039;-69
2022/04/26 06:45:44;;;;;;;9.43;3.63;;;9.60;99.90;;;;;;5133070;28;20060;-70
2022/04/26 06:48:14;;;;;;;11.68;3.70;;;9.50;99.90;;;;;;5116197;28;20035;-70
2022/04/26 06:50:41;;;;;;;17.05;4.00;;;9.60;99.90;;;;;;5132967;28;20070;-70
2022/04/26 06:53:07;;;;;;;16.48;4.05;;;9.60;99.90;;;;;;5132674;28;20551;-70
2022/04/26 06:55:33;;;;;;;13.25;3.70;;;9.60;99.90;;;;;;5132524;28;20070;-70
2022/04/26 06:57:59;;;;;;;12.73;3.50;;;9.70;99.90;;;;;;5133498;27;20035;-70
2022/04/26 07:00:25;;;;;;;11.38;3.72;;;9.60;99.90;;;;;;5136800;27;20506;-70
2022/04/26 07:02:51;;;;;;;11.40;3.55;;;9.70;99.90;;;;;;5136672;27;20558;-70
2022/04/26 07:05:17;;;;;;;16.08;4.05;;;9.70;99.90;;;;;;5136745;27;20148;-70
2022/04/26 07:07:42;;;;;;;11.65;3.28;;;9.70;99.90;;;;;;5119298;27;20595;-70
2022/04/26 07:10:09;;;;;;;15.68;3.47;;;9.80;99.90;;;;;;5136281;27;20067;-70
2022/04/26 07:12:36;;;;;;;9.20;3.10;;;9.70;99.90;;;;;;5136492;27;20449;-70
2022/04/26 07:15:03;;;;;;;13.10;3.20;;;9.70;99.90;;;;;;5136277;27;20070;-70
2022/04/26 07:17:28;;;;;;;8.82;2.97;;;9.70;99.90;;;;;;5136180;27;20499;-70
2022/04/26 07:19:54;;;;;;;9.27;2.92;;;9.70;99.90;;;;;;5136163;27;20042;-70
2022/04/26 07:22:19;;;;;;;14.15;3.15;;;9.70;99.90;;;;;;5136206;27;20035;-70
2022/04/26 07:24:45;;;;;;;9.85;2.50;;;9.80;99.90;;;;;;5118865;27;20042;-70
2022/04/26 07:27:11;;;;;;;8.13;2.88;;;9.80;99.90;;;;;;5135937;27;20072;-70
2022/04/26 07:29:41;;;;;;;9.63;2.90;;;9.90;99.90;;;;;;5135888;27;20126;-70
2022/04/26 07:32:07;;;;;;;9.88;3.05;;;10.00;99.90;;;;;;5135955;27;20039;-70
2022/04/26 07:34:33;;;;;;;9.70;3.10;;;10.10;99.90;;;;;;5135834;27;20039;-70
2022/04/26 07:37:00;;;;;;;9.40;2.65;;;10.20;99.90;;;;;;5136046;27;20047;-70
2022/04/26 07:39:30;;;;;;;10.75;3.00;;;10.30;99.90;;;;;;5135814;27;20046;-70
2022/04/26 07:41:56;;;;;;;8.50;2.40;;;10.40;99.90;;;;;;5135730;27;20126;-70
2022/04/26 07:44:22;;;;;;;6.80;3.05;;;10.40;99.90;;;;;;5135866;27;20054;-70
2022/04/26 07:46:49;;;;;;;8.25;2.28;;;10.40;99.90;;;;;;5118755;27;20039;-70
2022/04/26 07:49:15;;;;;;;8.48;2.40;;;10.30;99.90;;;;;;5135570;27;20067;-70
2022/04/26 07:51:44;;;;;;;8.73;1.98;;;10.30;99.90;;;;;;5118409;27;20043;-70
2022/04/26 07:54:10;;;;;;;9.10;2.63;;;10.30;99.90;;;;;;5135357;27;20039;-70
2022/04/26 07:56:36;;;;;;;9.35;2.60;;;10.40;99.90;;;;;;5118321;27;20077;-70
2022/04/26 07:59:03;;;;;;;11.70;2.90;;;10.40;99.90;;;;;;5135378;27;20035;-70
2022/04/26 08:01:30;;;;;;;10.45;3.47;;;10.60;99.90;;;;;;5135353;27;20043;-70
2022/04/26 08:03:56;;;;;;;11.18;2.90;;;10.90;99.90;;;;;;5135219;27;20046;-70
2022/04/26 08:06:22;;;;;;;10.98;2.95;;;11.10;99.90;;;;;;5135278;27;20153;-70
2022/04/26 08:08:47;;;;;;;9.48;2.63;;;11.40;99.90;;;;;;5135053;27;20121;-70
2022/04/26 08:11:13;;;;;;;7.85;2.33;;;11.60;99.90;;;;;;5134024;27;20057;-70
2022/04/26 08:13:40;;;;;;;10.13;2.70;;;11.80;99.90;;;;;;5135081;27;20043;-70
2022/04/26 08:16:06;;;;;;;7.68;2.47;;;11.90;99.90;;;;;;5135100;27;20038;-70
2022/04/26 08:18:32;;;;;;;8.27;2.33;;;11.90;99.90;;;;;;5134993;27;20487;-70
2022/04/26 08:20:58;;;;;;;9.15;2.65;;;11.90;99.90;;;;;;5135194;27;20095;-70
2022/04/26 08:23:23;;;;;;;13.00;2.78;;;11.80;99.90;;;;;;5134875;27;20057;-70
2022/04/26 08:28:33;;;;;;;7.97;2.30;;;11.50;99.90;;;;;;5134707;27;20051;-70
2022/04/26 08:31:00;;;;;;;6.07;2.40;;;11.30;99.90;;;;;;5134781;27;20099;-70
2022/04/26 08:33:26;;;;;;;8.05;2.35;;;11.20;99.90;;;;;;5134956;27;20077;-70
2022/04/26 08:35:52;;;;;;;7.05;2.40;;;11.10;99.90;;;;;;5134609;27;20039;-70
2022/04/26 08:38:18;;;;;;;8.43;2.30;;;11.10;99.90;;;;;;5134708;27;20050;-70
2022/04/26 08:40:44;;;;;;;9.32;2.45;;;11.30;99.90;;;;;;5134654;27;20047;-70
2022/04/26 08:43:11;;;;;;;10.23;2.80;;;11.50;99.90;;;;;;5134502;27;20039;-70
2022/04/26 08:45:40;;;;;;;7.03;2.50;;;11.80;99.90;;;;;;5134544;27;20046;-70
2022/04/26 08:51:03;;;;;;;7.68;2.60;;;12.30;99.90;;;;;;5134923;27;20440;-70
2022/04/26 08:53:31;;;;;;;5.18;2.20;;;12.60;99.90;;;;;;5134438;27;20051;-70
2022/04/26 08:56:01;;;;;;;8.45;2.92;;;12.80;99.90;;;;;;5134584;27;20027;-70
2022/04/26 08:58:31;;;;;;;7.55;3.10;;;12.80;99.90;;;;;;5134259;27;20077;-70
2022/04/26 09:01:18;;;;;;;9.35;2.97;;;13.00;99.90;;;;;;5134194;27;20130;-70
2022/04/26 09:03:56;;;;;;;7.07;2.45;;;13.30;99.90;;;;;;5116959;27;20100;-70
2022/04/26 09:06:36;;;;;;;11.38;3.20;;;13.50;99.90;;;;;;5117271;27;20134;-70
2022/04/26 09:09:15;;;;;;;6.85;3.08;;;13.70;99.90;;;;;;5133995;27;20035;-70
2022/04/26 09:11:42;;;;;;;7.32;2.88;;;13.70;99.90;;;;;;5133998;27;20035;-70
2022/04/26 09:14:28;;;;;;;9.18;3.38;;;13.50;99.90;;;;;;5133903;27;20039;-70
2022/04/26 09:17:11;;;;;;;7.22;2.88;;;13.40;99.90;;;;;;5117001;27;20035;-70
2022/04/26 09:19:48;;;;;;;8.50;2.60;;;13.30;99.90;;;;;;5117014;27;20039;-70
2022/04/26 09:22:19;;;;;;;9.23;2.97;;;13.20;99.90;;;;;;5116611;27;20495;-70
2022/04/26 09:24:56;;;;;;;6.20;2.42;;;13.00;99.90;;;;;;5133619;27;20122;-70
2022/04/26 09:27:23;;;;;;;7.38;2.53;;;13.00;99.90;;;;;;5133581;27;20045;-70
2022/04/26 09:29:49;;;;;;;8.35;2.67;;;13.10;99.90;;;;;;5133586;27;20049;-70
2022/04/26 09:32:15;;;;;;;7.85;2.28;;;13.40;99.90;;;;;;5133599;27;20031;-70
2022/04/26 09:34:42;;;;;;;6.47;1.98;;;13.70;99.90;;;;;;5133468;27;20039;-70
2022/04/26 09:37:07;;;;;;;6.13;2.35;;;14.00;99.90;;;;;;5133509;27;20042;-70
2022/04/26 09:39:33;;;;;;;5.85;2.13;;;14.30;99.90;;;;;;5133692;27;20043;-70
2022/04/26 09:41:59;;;;;;;8.70;2.30;;;14.50;98.10;;;;;;5133366;27;20043;-69
2022/04/26 09:44:40;;;;;;;9.55;2.45;;;14.70;97.20;;;;;;5133470;27;20041;-70
2022/04/26 09:47:06;;;;;;;8.63;2.95;;;14.70;91.70;;;;;;5133336;27;20432;-70
2022/04/26 09:49:37;;;;;;;6.03;2.22;;;14.60;95.60;;;;;;5133329;27;20087;-71
2022/04/26 09:52:03;;;;;;;6.07;2.40;;;14.60;95.20;;;;;;5133256;27;20031;-70
2022/04/26 09:54:32;;;;;;;6.47;2.70;;;14.40;95.60;;;;;;5133288;27;20172;-70
2022/04/26 09:56:59;;;;;;;5.20;2.15;;;14.20;95.70;;;;;;5133188;27;20110;-70
2022/04/26 09:59:28;;;;;;;8.52;2.95;;;14.30;95.90;;;;;;5133433;27;20078;-70
2022/04/26 10:01:58;;;;;;;7.90;2.75;;;14.40;96.00;;;;;;5133097;27;20050;-70
2022/04/26 10:04:27;;;;;;;6.82;2.42;;;14.30;95.20;;;;;;5132948;27;20043;-71
2022/04/26 10:06:58;;;;;;;5.03;2.17;;;14.20;92.80;;;;;;5133293;27;20187;-71
2022/04/26 10:09:25;;;;;;;6.30;2.15;;;14.30;94.10;;;;;;5133061;27;20088;-71
2022/04/26 10:11:57;;;;;;;6.00;2.30;;;14.20;92.60;;;;;;5133000;27;20068;-71
2022/04/26 10:14:23;;;;;;;7.47;2.30;;;14.20;92.40;;;;;;5132921;27;20491;-71
2022/04/26 10:16:50;;;;;;;9.73;2.80;;;14.00;93.40;;;;;;5132877;27;20399;-71
2022/04/26 10:19:16;;;;;;;9.77;2.30;;;14.20;94.30;;;;;;5116035;28;20126;-71
2022/04/26 10:21:41;;;;;;;5.95;2.13;;;14.50;93.30;;;;;;5133146;28;20108;-71
2022/04/26 10:24:11;;;;;;;5.55;2.42;;;14.70;90.70;;;;;;5132996;28;20437;-71
2022/04/26 10:26:37;;;;;;;7.18;2.45;;;14.90;91.50;;;;;;5115688;28;20045;-71
2022/04/26 10:29:13;;;;;;;4.80;2.22;;;14.90;89.20;;;;;;5132675;28;20118;-71
2022/04/26 10:31:41;;;;;;;6.97;2.17;;;15.10;88.40;;;;;;5133092;28;20105;-71
2022/04/26 10:34:26;;;;;;;8.25;2.20;;;15.40;86.70;;;;;;5135366;27;20031;-72
2022/04/26 10:36:51;;;;;;;7.35;2.00;;;15.80;83.60;;;;;;5136999;27;20502;-71
2022/04/26 10:39:22;;;;;;;4.60;2.22;;;15.90;77.90;;;;;;5120052;27;20039;-71
2022/04/26 10:41:48;;;;;;;6.57;2.70;;;16.00;77.10;;;;;;5137172;27;20118;-71
2022/04/26 10:44:14;;;;;;;7.00;2.53;;;15.90;79.30;;;;;;5136994;27;20577;-71
2022/04/26 10:46:44;;;;;;;7.03;2.20;;;15.90;75.10;;;;;;5119691;27;20506;-71
2022/04/26 10:49:25;;;;;;;8.57;2.00;;;16.20;72.80;;;;;;5136724;27;20047;-71
2022/04/26 10:51:57;;;;;;;6.50;2.05;;;16.50;70.10;;;;;;5136915;27;20057;-71
2022/04/26 10:54:45;;;;;;;6.47;2.00;;;16.80;69.10;;;;;;5148023;22;20043;-71
2022/04/26 10:57:10;;;;;;;4.25;2.28;;;16.60;62.10;;;;;;5099001;28;20277;-72
2022/04/26 10:59:41;;;;;;;6.43;2.05;;;16.40;64.30;;;;;;5116038;28;20092;-73
2022/04/26 11:02:11;;;;;;;4.82;2.03;;;16.60;65.30;;;;;;5115971;28;20035;-72
2022/04/26 11:04:36;;;;;;;5.07;1.98;;;16.90;70.70;;;;;;5115890;28;20053;-73
2022/04/26 11:07:12;;;;;;;5.45;1.85;;;16.80;66.00;;;;;;5115817;28;20160;-73
2022/04/26 11:09:53;;;;;;;6.60;2.17;;;16.70;61.80;;;;;;5115807;28;20042;-73
2022/04/26 11:12:20;;;;;;;5.15;1.92;;;16.80;64.00;;;;;;5115804;28;20039;-73
2022/04/26 11:14:47;;;;;;;4.05;1.55;;;17.10;64.90;;;;;;5098683;28;20092;-72
2022/04/26 11:17:15;;;;;;;5.65;1.52;;;17.40;60.30;;;;;;5115947;28;20106;-73
2022/04/26 11:19:54;;;;;;;7.47;1.85;;;17.80;59.40;;;;;;5115916;28;20036;-73
2022/04/26 11:22:21;;;;;;;6.68;2.00;;;17.90;56.70;;;;;;5115617;28;20040;-73
2022/04/26 11:30:44;;;;;;;6.50;2.13;;;17.60;56.50;;;;;;5115440;28;20051;-71
2022/04/26 11:33:12;;;;;;;3.38;1.60;;;17.50;55.50;;;;;;5115563;28;20048;-71
2022/04/26 11:35:40;;;;;;;6.60;1.75;;;17.50;56.50;;;;;;5115359;28;20050;-71
2022/04/26 11:38:09;;;;;;;6.72;1.83;;;17.70;56.80;;;;;;5115600;28;20043;-70
2022/04/26 11:40:41;;;;;;;4.32;1.60;;;18.00;54.90;;;;;;5115281;28;20588;-70
2022/04/26 11:43:12;;;;;;;5.03;1.85;;;18.10;52.60;;;;;;5115121;28;20035;-70
2022/04/26 11:45:44;;;;;;;5.13;1.80;;;18.50;53.80;;;;;;5115026;28;20040;-70
2022/04/26 11:48:20;;;;;;;11.57;2.08;;;18.80;52.90;;;;;;5115069;28;20471;-70
2022/04/26 11:50:51;;;;;;;3.90;1.80;;;18.90;51.70;;;;;;5115081;28;20101;-70
2022/04/26 11:53:19;;;;;;;4.50;1.83;;;18.90;51.50;;;;;;5114820;28;20062;-70
2022/04/26 11:55:56;;;;;;;6.78;1.98;;;19.00;52.50;;;;;;5098174;28;20042;-70
2022/04/26 11:58:28;;;;;;;6.90;2.05;;;19.10;50.70;;;;;;5114911;28;20441;-71
2022/04/26 12:01:02;;;;;;;5.88;2.05;;;18.70;51.20;;;;;;5115168;28;20054;-71
2022/04/26 12:03:29;;;;;;;5.68;1.92;;;18.30;50.80;;;;;;5114999;28;20059;-71
2022/04/26 12:05:58;;;;;;;5.50;1.52;;;18.00;52.20;;;;;;5114762;28;20058;-71
2022/04/26 12:08:25;;;;;;;5.63;2.20;;;18.10;53.60;;;;;;5114594;28;20079;-71
2022/04/26 12:10:50;;;;;;;5.57;1.80;;;18.40;52.70;;;;;;5114670;28;20035;-72
2022/04/26 12:13:31;;;;;;;4.65;1.98;;;18.60;52.20;;;;;;5114569;28;20035;-72
2022/04/26 12:16:13;;;;;;;6.38;1.67;;;18.50;51.00;;;;;;5114568;28;20563;-72
2022/04/26 12:18:53;;;;;;;3.75;1.83;;;18.30;49.20;;;;;;5114906;28;20130;-72
2022/04/26 12:21:20;;;;;;;4.32;1.98;;;18.40;51.30;;;;;;5114771;28;20083;-72
2022/04/26 12:23:46;;;;;;;3.83;1.70;;;18.60;51.30;;;;;;5097295;28;20040;-72
2022/04/26 12:26:11;;;;;;;6.13;2.22;;;18.80;51.40;;;;;;5114606;28;20046;-72
2022/04/26 12:28:49;;;;;;;3.33;1.52;;;18.90;50.90;;;;;;5114448;28;20047;-72
2022/04/26 12:31:23;;;;;;;5.25;1.77;;;18.90;48.70;;;;;;5114188;28;20042;-72
2022/04/26 12:34:12;;;;;;;6.32;1.90;;;18.80;50.10;;;;;;5114343;28;20096;-72
2022/04/26 12:37:07;;;;;;;5.20;2.25;;;19.00;50.90;;;;;;5114453;28;20140;-71
2022/04/26 12:39:42;;;;;;;7.95;1.60;;;19.30;49.70;;;;;;5114168;28;20039;-70
2022/04/26 12:42:16;;;;;;;6.25;2.10;;;19.50;49.70;;;;;;5114346;28;20137;-70
2022/04/26 12:44:53;;;;;;;7.32;2.10;;;19.50;49.70;;;;;;5114135;28;20084;-70
2022/04/26 12:50:28;;;;;;;8.05;2.10;;;19.50;50.70;;;;;;5113781;28;20040;-71
2022/04/26 12:52:58;;;;;;;4.90;2.17;;;19.70;49.10;;;;;;5113852;28;20040;-71
2022/04/26 12:55:34;;;;;;;9.75;2.10;;;19.70;48.50;;;;;;5096424;28;20050;-71
2022/04/26 12:58:08;;;;;;;5.90;2.00;;;19.40;48.40;;;;;;5113973;28;20486;-71
2022/04/26 13:00:39;;;;;;;5.78;2.13;;;18.90;47.80;;;;;;5113689;28;20077;-71
2022/04/26 13:03:06;;;;;;;5.13;1.50;;;18.80;48.20;;;;;;5114061;28;20031;-71
2022/04/26 13:05:46;;;;;;;6.60;1.90;;;19.00;49.70;;;;;;5113586;28;20088;-71
2022/04/26 13:08:19;;;;;;;7.60;1.80;;;19.20;47.30;;;;;;5114105;28;20099;-71
2022/04/26 13:10:47;;;;;;;5.43;1.83;;;19.40;47.30;;;;;;5096529;28;20471;-71
2022/04/26 13:13:14;;;;;;;3.92;1.63;;;19.60;47.50;;;;;;5113382;28;20039;-71
2022/04/26 13:15:44;;;;;;;3.42;1.48;;;19.70;46.10;;;;;;5113405;28;20118;-71
2022/04/26 13:18:11;;;;;;;4.03;1.88;;;19.80;47.00;;;;;;5113412;28;20514;-71
2022/04/26 13:20:37;;;;;;;4.78;1.83;;;19.80;47.10;;;;;;5113488;28;20049;-71
2022/04/26 13:23:03;;;;;;;5.65;1.48;;;19.70;47.80;;;;;;5113306;28;20095;-71
2022/04/26 13:25:29;;;;;;;5.10;1.98;;;19.80;47.30;;;;;;5113199;28;20084;-71
2022/04/26 13:27:55;;;;;;;4.25;1.60;;;20.00;47.30;;;;;;5113057;28;20559;-71
2022/04/26 13:30:21;;;;;;;4.05;1.50;;;20.20;47.40;;;;;;5113117;28;20036;-71
2022/04/26 13:32:47;;;;;;;8.88;2.17;;;20.00;46.20;;;;;;5113050;28;20039;-71
2022/04/26 13:35:13;;;;;;;3.30;1.52;;;19.70;46.00;;;;;;5112977;28;20047;-71
2022/04/26 13:37:39;;;;;;;4.15;1.60;;;19.30;46.60;;;;;;5096018;28;20048;-71
2022/04/26 13:40:08;;;;;;;4.38;1.80;;;19.00;47.40;;;;;;5112985;28;20031;-71
2022/04/26 13:42:35;;;;;;;4.35;1.85;;;18.70;48.00;;;;;;5112888;28;20035;-71
2022/04/26 13:45:01;;;;;;;5.25;1.67;;;18.70;48.60;;;;;;5112840;28;20050;-71
2022/04/26 13:47:27;;;;;;;5.97;1.83;;;18.90;48.40;;;;;;5096064;28;20051;-71
2022/04/26 13:49:53;;;;;;;6.13;1.95;;;18.90;48.00;;;;;;5112740;28;20411;-71
2022/04/26 13:52:22;;;;;;;5.00;2.13;;;18.90;47.70;;;;;;5112756;28;20036;-71
2022/04/26 13:54:49;;;;;;;4.57;1.63;;;19.00;48.60;;;;;;5112439;28;20044;-70
2022/04/26 13:57:16;;;;;;;6.82;1.88;;;18.90;48.20;;;;;;5112745;28;20039;-71
2022/04/26 13:59:42;;;;;;;5.93;1.77;;;18.90;47.30;;;;;;5112645;28;20039;-71
2022/04/26 14:02:08;;;;;;;4.22;1.75;;;19.00;47.80;;;;;;5112585;28;20100;-71
2022/04/26 14:04:34;;;;;;;4.85;1.90;;;19.10;47.80;;;;;;5112498;28;20043;-71
2022/04/26 14:07:00;;;;;;;5.60;1.92;;;19.10;47.90;;;;;;5112284;28;20051;-71
2022/04/26 14:09:26;;;;;;;4.82;1.60;;;19.20;48.10;;;;;;5111814;28;20039;-71
2022/04/26 14:11:54;;;;;;;5.43;1.80;;;19.30;48.30;;;;;;5112476;28;20051;-71
2022/04/26 14:22:32;;;;;;;4.55;2.17;;;19.40;48.40;;;;;;5112325;28;20126;-71
2022/04/26 14:25:09;;;;;;;6.65;2.10;;;19.50;47.80;;;;;;5112521;28;20051;-71
2022/04/26 14:27:37;;;;;;;5.50;1.98;;;19.60;47.20;;;;;;5112633;28;20046;-71
2022/04/26 14:30:05;;;;;;;5.00;1.70;;;19.70;47.40;;;;;;5112203;28;20031;-71
2022/04/26 14:32:31;;;;;;;5.30;1.77;;;19.80;47.90;;;;;;5111655;28;20079;-71
2022/04/26 14:34:56;;;;;;;4.38;1.80;;;19.90;48.50;;;;;;5112167;28;20078;-71
2022/04/26 14:37:22;;;;;;;5.82;2.10;;;20.00;47.70;;;;;;5112448;28;20043;-71
2022/04/26 14:39:49;;;;;;;4.65;1.98;;;20.10;47.40;;;;;;5095173;28;20541;-71
2022/04/26 14:42:14;;;;;;;6.60;1.73;;;20.00;47.00;;;;;;5112242;28;20047;-71
2022/04/26 14:44:41;;;;;;;3.47;1.45;;;19.70;46.80;;;;;;5112060;28;20186;-71
2022/04/26 14:47:09;;;;;;;4.55;1.55;;;19.40;47.30;;;;;;5112181;28;20040;-71
2022/04/26 14:49:35;;;;;;;4.15;1.92;;;19.00;47.80;;;;;;5112037;28;20040;-71
2022/04/26 14:52:01;;;;;;;8.68;2.10;;;18.60;48.10;;;;;;5112062;28;20039;-71
2022/04/26 14:54:26;;;;;;;5.38;2.13;;;18.30;48.60;;;;;;5094949;28;20035;-71
2022/04/26 14:56:52;;;;;;;8.27;2.28;;;18.30;49.00;;;;;;5112025;28;20038;-71
2022/04/26 14:59:19;;;;;;;8.20;2.45;;;18.10;49.40;;;;;;5112266;28;20081;-71
2022/04/26 15:01:46;;;;;;;7.25;2.00;;;17.90;49.80;;;;;;5112008;28;20067;-71
2022/04/26 15:04:30;;;;;;;10.77;2.30;;;17.90;51.00;;;;;;5111945;28;20043;-71
2022/04/26 15:06:55;;;;;;;5.60;2.08;;;18.00;50.70;;;;;;5095043;28;20050;-71
2022/04/26 15:17:33;;;;;;;5.07;1.85;;;17.30;51.40;;;;;;5111848;28;20036;-71
2022/04/26 15:20:00;;;;;;;6.72;2.05;;;17.10;52.10;;;;;;5097301;28;20043;-71
2022/04/26 15:22:26;;;;;;;3.80;1.88;;;16.90;52.40;;;;;;5115666;28;20051;-71
2022/04/26 15:24:56;;;;;;;4.07;1.80;;;16.80;52.40;;;;;;5115549;28;20071;-71
2022/04/26 15:27:21;;;;;;;6.53;2.53;;;16.60;52.90;;;;;;5115508;28;20042;-71
2022/04/26 15:29:48;;;;;;;5.10;1.60;;;16.50;53.50;;;;;;5115363;28;20047;-70
2022/04/26 15:32:14;;;;;;;7.68;2.17;;;16.60;53.70;;;;;;5115435;28;20042;-70
2022/04/26 15:34:40;;;;;;;6.45;1.70;;;16.80;53.90;;;;;;5115279;28;20035;-70
2022/04/26 15:37:06;;;;;;;8.73;2.00;;;17.00;53.30;;;;;;5115366;28;20119;-70
2022/04/26 15:39:33;;;;;;;5.93;1.98;;;17.10;53.20;;;;;;5115677;28;20066;-71
2022/04/26 15:41:59;;;;;;;7.80;2.17;;;17.20;53.40;;;;;;5115500;28;20467;-71
2022/04/26 15:44:25;;;;;;;5.60;2.13;;;17.20;52.70;;;;;;5115218;28;20122;-71
2022/04/26 15:46:54;;;;;;;5.70;1.92;;;17.30;53.00;;;;;;5115413;28;20131;-71
2022/04/26 15:49:20;;;;;;;4.38;1.58;;;17.40;53.00;;;;;;5115134;28;20050;-71
2022/04/26 15:51:47;;;;;;;6.38;1.90;;;17.30;52.20;;;;;;5115105;28;20036;-71
2022/04/26 15:54:14;;;;;;;6.80;2.10;;;17.40;53.00;;;;;;5114828;28;20032;-71
2022/04/26 15:56:41;;;;;;;6.63;1.90;;;17.50;52.50;;;;;;5115175;28;20039;-71
2022/04/26 15:59:08;;;;;;;7.65;1.85;;;17.40;52.20;;;;;;5114947;28;20069;-71
2022/04/26 16:01:35;;;;;;;6.57;1.90;;;17.40;52.10;;;;;;5114892;28;20537;-71
2022/04/26 16:04:00;;;;;;;5.15;2.00;;;17.40;51.70;;;;;;5114768;28;20040;-71
2022/04/26 16:06:26;;;;;;;5.13;1.70;;;17.40;51.70;;;;;;5114752;28;20046;-71
2022/04/26 16:08:51;;;;;;;7.82;2.08;;;17.20;51.60;;;;;;5114578;28;20040;-71
2022/04/26 16:22:15;;;;;;;5.93;1.90;;;16.70;52.70;;;;;;5114433;28;20039;-71
2022/04/26 16:24:44;;;;;;;5.72;2.03;;;16.50;52.50;;;;;;5114612;28;20036;-71
2022/04/26 16:27:09;;;;;;;7.05;1.77;;;16.40;53.00;;;;;;5114328;28;20061;-71
2022/04/26 16:29:35;;;;;;;5.30;1.65;;;16.30;53.60;;;;;;5097242;28;20039;-71
2022/04/26 16:32:01;;;;;;;6.85;2.17;;;16.20;53.70;;;;;;5113547;28;20040;-71
2022/04/26 16:34:27;;;;;;;4.30;1.88;;;16.10;54.20;;;;;;5114503;28;20127;-71
2022/04/26 16:36:53;;;;;;;7.10;1.98;;;16.00;54.50;;;;;;5097131;28;20441;-71
2022/04/26 16:39:19;;;;;;;7.65;1.80;;;15.80;54.20;;;;;;5114165;28;20043;-71
2022/04/26 16:41:45;;;;;;;6.95;2.00;;;15.70;54.70;;;;;;5114104;28;20040;-71
2022/04/26 16:44:10;;;;;;;6.20;1.92;;;15.80;55.30;;;;;;5113959;28;20069;-71
2022/04/26 16:46:37;;;;;;;6.57;2.00;;;15.80;55.10;;;;;;5114000;28;20036;-71
2022/04/26 16:49:03;;;;;;;5.05;1.90;;;15.90;55.10;;;;;;5113876;28;20096;-71
2022/04/26 16:51:30;;;;;;;6.32;1.95;;;15.90;55.00;;;;;;5114461;28;20042;-71
2022/04/26 16:53:57;;;;;;;3.63;1.83;;;16.00;55.00;;;;;;5114390;28;20043;-70
2022/04/26 16:56:22;;;;;;;5.57;2.05;;;16.10;54.60;;;;;;5114055;28;20039;-70
2022/04/26 16:58:48;;;;;;;5.97;2.22;;;16.10;55.50;;;;;;5114009;28;20039;-70
2022/04/26 17:01:14;;;;;;;4.15;1.75;;;16.10;54.70;;;;;;5113672;28;20483;-70
2022/04/26 17:03:39;;;;;;;3.08;1.65;;;16.20;54.80;;;;;;5113601;28;20050;-70
2022/04/26 17:06:05;;;;;;;5.07;1.85;;;16.20;54.70;;;;;;5113615;28;20039;-70
2022/04/26 17:08:30;;;;;;;5.15;1.90;;;16.20;54.80;;;;;;5113409;28;20075;-70
2022/04/26 17:11:41;;;;;;;5.03;1.85;;;16.30;55.40;;;;;;5113454;28;20036;-70